New Orleans Nas Jrb,Alvin Callender Field, Airport New Orleans US
ICAO: KNBG
IATA: NBG
Category: Medium
Scheduled Services: No

Elevation: 2 ft
TransAlt. 18000 ft.

Airport Communications:
APP/DEP:123.85
ATIS:27.62
NAVY NEW ORLEANS GND:121.6
USCG NEW ORLEANS AIR:38.18
BASE OPS:37.915
PMSV METRO:26.58
NAVY NEW ORLEANS TWR:123.8

KNBG Zoom In..

If you have problems with the map follow the link
https://www.worldairports.se/pages/airport.php?
ICAO=KNBG

Runways:

(A) RW 04 length 10000 ft width 200 ft
ILS 109.50 / hdg 44

(B) RW 14 length 6000 ft width 200 ft
---- / hdg 141

(C) RW 22 length 10000 ft width 200 ft
---- / hdg 224

(D) RW 32 length 6000 ft width 200 ft
---- / hdg 321

Location; KNBG
Day. 21 / Time. 17.55 Zulu
* Altimeter: 30.25
* Temperature: 21° c. 69.8°f.
* Wind from: 040° Speed 12 kn.
Dewpoint: 08° c.
Visibility: 10 Statute Miles.
Clouds: Scattered 7000 ft.
Clouds: Scattered 25000 ft.

KNBG 211755Z 04012KT 10SM SCT070 SCT250 21/08 A3025 RMK AO2 SLP243 T02060083 10289 20183 51010 $


Wind From 040°
Speed 12 kn.

 
 
jpsmedia.com for Web Design worldairports.se 2018   terms of use